createdAt,value
2023-02-01T00:01:51.563Z,100539.84
2023-02-01T00:04:19.221Z,100556.06
2023-02-01T00:06:46.883Z,100539.56
2023-02-01T00:09:17.036Z,100554.72
2023-02-01T00:11:44.701Z,100547.06
2023-02-01T00:14:12.423Z,100568.84
2023-02-01T00:16:40.128Z,100541.91
2023-02-01T00:19:09.836Z,100555.59
2023-02-01T00:21:37.620Z,100551.72
2023-02-01T00:24:05.609Z,100551.22
2023-02-01T00:26:33.750Z,100554.94
2023-02-01T00:29:01.753Z,100555.81
2023-02-01T00:31:29.791Z,100557.06
2023-02-01T00:33:57.902Z,100537.00
2023-02-01T00:36:27.024Z,100548.34
2023-02-01T00:38:54.696Z,100537.06
2023-02-01T00:41:23.037Z,100535.94
2023-02-01T00:43:50.879Z,100547.19
2023-02-01T00:46:19.221Z,100537.56
2023-02-01T00:48:47.110Z,100542.06
2023-02-01T00:51:15.209Z,100551.63
2023-02-01T00:53:44.238Z,100562.31
2023-02-01T00:56:12.136Z,100555.34
2023-02-01T00:58:39.756Z,100548.13
2023-02-01T01:01:08.925Z,100552.56
2023-02-01T01:03:37.934Z,100557.66
2023-02-01T01:06:06.528Z,100568.06
2023-02-01T01:08:34.164Z,100575.81
2023-02-01T01:11:07.148Z,100566.09
2023-02-01T01:13:34.950Z,100560.44
2023-02-01T01:16:05.645Z,100573.22
2023-02-01T01:18:34.058Z,100576.56
2023-02-01T01:21:01.840Z,100552.84
2023-02-01T01:23:29.734Z,100546.03
2023-02-01T01:25:57.427Z,100541.50
2023-02-01T01:28:26.451Z,100539.66
2023-02-01T01:30:54.311Z,100530.34
2023-02-01T01:33:22.115Z,100534.34
2023-02-01T01:35:49.877Z,100523.44
2023-02-01T01:38:17.562Z,100527.16
2023-02-01T01:40:46.493Z,100540.59
2023-02-01T01:43:15.163Z,100521.94
2023-02-01T01:45:44.412Z,100520.97
2023-02-01T01:48:14.119Z,100507.09
2023-02-01T01:50:43.187Z,100511.06
2023-02-01T01:53:11.153Z,100504.13
2023-02-01T01:55:39.374Z,100512.03
2023-02-01T01:58:07.858Z,100499.28
2023-02-01T02:00:35.635Z,100496.34
2023-02-01T02:03:05.727Z,100504.84
2023-02-01T02:05:33.402Z,100523.44
2023-02-01T02:08:01.986Z,100512.84
2023-02-01T02:10:49.768Z,100521.41
2023-02-01T02:13:17.459Z,100502.94
2023-02-01T02:15:45.796Z,100522.25
2023-02-01T02:18:15.821Z,100523.94
2023-02-01T02:20:54.252Z,100510.41
2023-02-01T02:23:27.803Z,100514.44
2023-02-01T02:26:05.352Z,100512.72
2023-02-01T02:28:48.067Z,100524.13
2023-02-01T02:31:34.085Z,100525.66
2023-02-01T02:34:08.328Z,100520.66
2023-02-01T02:36:39.266Z,100503.53
2023-02-01T02:39:09.396Z,100505.16
2023-02-01T02:42:08.983Z,100521.91
2023-02-01T02:44:55.104Z,100509.81
2023-02-01T02:47:28.456Z,100507.91
2023-02-01T02:50:21.063Z,100504.19
2023-02-01T02:53:11.145Z,100502.63
2023-02-01T02:55:39.485Z,100509.34
2023-02-01T02:58:24.857Z,100491.88
2023-02-01T03:01:10.232Z,100485.09
2023-02-01T03:03:56.425Z,100495.78
2023-02-01T03:06:25.838Z,100495.41
2023-02-01T03:08:57.825Z,100494.97
2023-02-01T03:11:45.790Z,100488.50
2023-02-01T03:14:12.642Z,100484.19
2023-02-01T03:16:43.561Z,100493.16
2023-02-01T03:19:11.538Z,100480.84
2023-02-01T03:21:42.523Z,100490.75
2023-02-01T03:24:11.690Z,100473.91
2023-02-01T03:26:40.706Z,100482.22
2023-02-01T03:29:10.293Z,100459.47
2023-02-01T03:31:38.258Z,100452.59
2023-02-01T03:34:06.311Z,100446.50
2023-02-01T03:36:36.662Z,100454.97
2023-02-01T03:39:06.661Z,100444.72
2023-02-01T03:41:37.141Z,100439.81
2023-02-01T03:44:06.873Z,100454.19
2023-02-01T03:46:35.079Z,100448.78
2023-02-01T03:49:04.705Z,100450.91
2023-02-01T03:51:32.427Z,100455.34
2023-02-01T03:54:00.131Z,100442.16
2023-02-01T03:56:29.126Z,100430.94
2023-02-01T03:59:02.689Z,100446.28
2023-02-01T04:01:35.056Z,100435.97
2023-02-01T04:04:02.789Z,100438.66
2023-02-01T04:06:30.821Z,100444.97
2023-02-01T04:09:03.629Z,100435.88
2023-02-01T04:11:32.583Z,100444.41
2023-02-01T04:14:05.077Z,100431.41
2023-02-01T04:16:33.277Z,100436.72
2023-02-01T04:19:01.183Z,100443.03
2023-02-01T04:21:30.818Z,100436.53
2023-02-01T04:23:58.466Z,100434.59
2023-02-01T04:26:26.145Z,100436.38
2023-02-01T04:28:55.178Z,100436.09
2023-02-01T04:31:26.633Z,100439.34
2023-02-01T04:33:54.713Z,100418.66
2023-02-01T04:36:23.381Z,100437.16
2023-02-01T04:38:51.121Z,100444.38
2023-02-01T04:41:19.669Z,100421.88
2023-02-01T04:43:47.580Z,100438.38
2023-02-01T04:46:16.677Z,100442.56
2023-02-01T04:48:44.389Z,100419.34
2023-02-01T04:51:12.089Z,100413.66
2023-02-01T04:53:39.753Z,100420.91
2023-02-01T04:56:07.743Z,100417.81
2023-02-01T04:58:35.582Z,100401.25
2023-02-01T05:01:05.314Z,100409.47
2023-02-01T05:03:34.617Z,100398.66
2023-02-01T05:06:02.341Z,100407.28
2023-02-01T05:08:30.566Z,100404.53
2023-02-01T05:10:59.697Z,100404.34
2023-02-01T05:13:44.923Z,100394.53
2023-02-01T05:16:12.819Z,100386.28
2023-02-01T05:18:41.861Z,100392.53
2023-02-01T05:21:09.575Z,100389.19
2023-02-01T05:23:57.306Z,100391.78
2023-02-01T05:26:25.212Z,100398.63
2023-02-01T05:28:53.073Z,100398.97
2023-02-01T05:31:20.819Z,100388.34
2023-02-01T05:33:49.954Z,100391.88
2023-02-01T05:36:17.629Z,100386.31
2023-02-01T05:38:45.278Z,100376.69
2023-02-01T05:41:12.883Z,100390.44
2023-02-01T05:43:40.527Z,100384.00
2023-02-01T05:46:16.417Z,100383.66
2023-02-01T05:49:10.237Z,100388.72
2023-02-01T05:51:37.892Z,100392.63
2023-02-01T05:54:05.581Z,100377.03
2023-02-01T05:56:33.440Z,100380.72
2023-02-01T06:01:28.528Z,100364.59
2023-02-01T06:03:56.222Z,100360.78
2023-02-01T06:06:25.300Z,100366.41
2023-02-01T06:08:53.009Z,100348.50
2023-02-01T06:11:31.721Z,100356.44
2023-02-01T06:14:00.066Z,100356.66
2023-02-01T06:16:27.930Z,100362.34
2023-02-01T06:18:55.795Z,100367.34
2023-02-01T06:21:25.441Z,100366.38
2023-02-01T06:23:53.144Z,100374.91
2023-02-01T06:26:20.997Z,100353.16
2023-02-01T06:28:48.740Z,100355.06
2023-02-01T06:31:16.463Z,100349.16
2023-02-01T06:33:44.307Z,100352.97
2023-02-01T06:36:12.201Z,100357.25
2023-02-01T06:38:41.205Z,100353.56
2023-02-01T06:41:08.839Z,100344.72
2023-02-01T06:43:36.540Z,100355.34
2023-02-01T06:46:04.786Z,100355.34
2023-02-01T06:48:32.497Z,100358.75
2023-02-01T06:51:00.176Z,100348.78
2023-02-01T06:53:27.908Z,100345.34
2023-02-01T06:55:57.181Z,100342.53
2023-02-01T06:58:24.983Z,100340.22
2023-02-01T07:00:54.890Z,100324.16
2023-02-01T07:03:22.611Z,100324.75
2023-02-01T07:05:50.262Z,100325.88
2023-02-01T07:08:17.880Z,100342.81
2023-02-01T07:10:45.542Z,100303.19
2023-02-01T07:13:14.527Z,100314.13
2023-02-01T07:15:42.127Z,100320.41
2023-02-01T07:18:09.776Z,100316.75
2023-02-01T07:20:37.443Z,100312.72
2023-02-01T07:23:05.058Z,100314.72
2023-02-01T07:25:32.804Z,100324.19
2023-02-01T07:28:00.387Z,100309.16
2023-02-01T07:30:29.391Z,100304.44
2023-02-01T07:33:00.321Z,100298.50
2023-02-01T07:35:28.110Z,100291.34
2023-02-01T07:37:55.786Z,100292.25
2023-02-01T07:40:29.317Z,100285.22
2023-02-01T07:43:00.891Z,100270.94
2023-02-01T07:45:30.039Z,100286.91
2023-02-01T07:47:57.656Z,100300.09
2023-02-01T07:50:25.501Z,100300.34
2023-02-01T07:52:54.404Z,100302.09
2023-02-01T07:55:23.718Z,100288.97
2023-02-01T07:57:51.334Z,100291.34
2023-02-01T08:00:37.313Z,100291.75
2023-02-01T08:03:06.795Z,100294.44
2023-02-01T08:05:34.683Z,100279.22
2023-02-01T08:08:02.282Z,100288.25
2023-02-01T08:10:29.987Z,100276.50
2023-02-01T08:13:00.827Z,100274.66
2023-02-01T08:15:28.733Z,100266.41
2023-02-01T08:17:56.566Z,100276.44
2023-02-01T08:20:26.969Z,100282.50
2023-02-01T08:22:54.860Z,100297.88
2023-02-01T08:25:22.549Z,100281.03
2023-02-01T08:27:50.238Z,100283.66
2023-02-01T08:30:18.193Z,100280.94
2023-02-01T08:32:45.832Z,100269.06
2023-02-01T08:35:13.546Z,100274.16
2023-02-01T08:37:42.539Z,100282.50
2023-02-01T08:40:10.908Z,100289.19
2023-02-01T08:42:55.418Z,100284.91
2023-02-01T08:45:24.768Z,100285.97
2023-02-01T08:47:52.468Z,100289.53
2023-02-01T08:50:20.561Z,100288.88
2023-02-01T08:52:49.830Z,100293.56
2023-02-01T08:55:17.563Z,100292.84
2023-02-01T08:57:45.306Z,100306.81
2023-02-01T09:00:14.580Z,100300.69
2023-02-01T09:02:42.303Z,100308.78
2023-02-01T09:05:10.135Z,100310.91
2023-02-01T09:07:37.800Z,100310.66
2023-02-01T09:10:07.258Z,100317.69
2023-02-01T09:12:35.286Z,100340.34
2023-02-01T09:15:03.476Z,100322.31
2023-02-01T09:17:31.436Z,100323.50
2023-02-01T09:19:59.096Z,100326.13
2023-02-01T09:22:26.755Z,100345.84
2023-02-01T09:24:55.317Z,100333.66
2023-02-01T09:27:24.484Z,100338.97
2023-02-01T09:29:53.559Z,100359.59
2023-02-01T09:32:21.515Z,100349.72
2023-02-01T09:34:49.284Z,100359.97
2023-02-01T09:37:16.982Z,100364.41
2023-02-01T09:39:44.775Z,100374.41
2023-02-01T09:42:33.586Z,100367.97
2023-02-01T09:45:04.922Z,100364.66
2023-02-01T09:47:32.646Z,100376.47
2023-02-01T09:50:01.340Z,100377.78
2023-02-01T09:52:30.171Z,100389.63
2023-02-01T09:55:01.808Z,100377.09
2023-02-01T09:57:33.489Z,100379.38
2023-02-01T10:00:03.027Z,100379.72
2023-02-01T10:02:40.083Z,100388.22
2023-02-01T10:05:08.176Z,100401.59
2023-02-01T10:07:36.605Z,100383.84
2023-02-01T10:10:05.891Z,100394.41
2023-02-01T10:12:42.086Z,100395.06
2023-02-01T10:15:14.329Z,100392.97
2023-02-01T10:17:46.772Z,100394.78
2023-02-01T10:20:15.418Z,100393.63
2023-02-01T10:23:08.770Z,100394.91
2023-02-01T10:25:33.265Z,100396.31
2023-02-01T10:28:02.924Z,100403.81
2023-02-01T10:30:34.669Z,100395.53
2023-02-01T10:33:03.714Z,100386.31
2023-02-01T10:35:32.227Z,100382.91
2023-02-01T10:38:00.610Z,100393.56
2023-02-01T10:40:28.421Z,100394.41
2023-02-01T10:42:56.513Z,100413.41
2023-02-01T10:45:26.589Z,100401.00
2023-02-01T10:47:54.743Z,100395.31
2023-02-01T10:50:26.477Z,100395.56
2023-02-01T10:52:55.041Z,100396.75
2023-02-01T10:55:30.164Z,100398.91
2023-02-01T10:57:58.816Z,100379.84
2023-02-01T11:00:28.103Z,100392.44
2023-02-01T11:02:55.732Z,100398.66
2023-02-01T11:05:24.461Z,100396.47
2023-02-01T11:07:53.401Z,100402.28
2023-02-01T11:10:36.989Z,100379.81
2023-02-01T11:13:04.865Z,100362.25
2023-02-01T11:15:33.923Z,100372.09
2023-02-01T11:18:14.659Z,100378.94
2023-02-01T11:20:42.624Z,100348.59
2023-02-01T11:23:13.486Z,100370.56
2023-02-01T11:25:41.209Z,100360.28
2023-02-01T11:28:09.919Z,100368.47
2023-02-01T11:30:41.268Z,100356.63
2023-02-01T11:33:09.506Z,100352.44
2023-02-01T11:35:37.790Z,100347.13
2023-02-01T11:38:11.441Z,100335.47
2023-02-01T11:40:39.460Z,100341.06
2023-02-01T11:43:09.791Z,100318.72
2023-02-01T11:45:39.313Z,100334.03
2023-02-01T11:48:10.158Z,100330.31
2023-02-01T11:50:41.196Z,100328.31
2023-02-01T11:53:22.320Z,100309.94
2023-02-01T11:55:53.344Z,100333.00
2023-02-01T11:58:25.148Z,100322.84
2023-02-01T12:00:59.197Z,100336.31
2023-02-01T12:03:41.737Z,100331.16
2023-02-01T12:06:10.689Z,100326.66
2023-02-01T12:08:43.794Z,100315.66
2023-02-01T12:11:28.954Z,100311.59
2023-02-01T12:13:57.787Z,100319.72
2023-02-01T12:16:29.545Z,100317.50
2023-02-01T12:19:12.892Z,100300.50
2023-02-01T12:21:45.095Z,100311.06
2023-02-01T12:24:22.200Z,100315.00
2023-02-01T12:26:52.705Z,100300.91
2023-02-01T12:29:23.131Z,100292.06
2023-02-01T12:32:01.311Z,100290.19
2023-02-01T12:34:33.085Z,100295.28
2023-02-01T12:37:02.448Z,100286.97
2023-02-01T12:39:32.338Z,100286.69
2023-02-01T12:42:01.109Z,100263.53
2023-02-01T12:44:30.303Z,100258.69
2023-02-01T12:46:59.034Z,100259.88
2023-02-01T12:49:30.950Z,100256.25
2023-02-01T12:52:00.935Z,100249.28
2023-02-01T12:54:30.206Z,100249.22
2023-02-01T12:56:58.478Z,100246.25
2023-02-01T12:59:27.214Z,100231.03
2023-02-01T13:01:57.505Z,100231.66
2023-02-01T13:04:27.735Z,100229.66
2023-02-01T13:06:59.306Z,100237.22
2023-02-01T13:09:27.758Z,100244.72
2023-02-01T13:11:55.814Z,100240.00
2023-02-01T13:14:25.942Z,100239.63
2023-02-01T13:16:54.411Z,100242.13
2023-02-01T13:19:22.997Z,100250.09
2023-02-01T13:21:52.311Z,100250.78
2023-02-01T13:24:27.106Z,100249.94
2023-02-01T13:26:55.717Z,100256.69
2023-02-01T13:29:23.677Z,100256.66
2023-02-01T13:32:07.091Z,100237.66
2023-02-01T13:34:50.011Z,100249.47
2023-02-01T13:37:24.233Z,100244.25
2023-02-01T13:39:56.377Z,100248.72
2023-02-01T13:42:24.971Z,100242.28
2023-02-01T13:44:52.997Z,100230.53
2023-02-01T13:47:27.187Z,100232.75
2023-02-01T13:49:55.031Z,100215.25
2023-02-01T13:52:27.312Z,100213.22
2023-02-01T13:55:04.695Z,100198.63
2023-02-01T13:57:37.294Z,100208.53
2023-02-01T14:00:10.519Z,100203.34
2023-02-01T14:03:05.256Z,100210.41
2023-02-01T14:05:51.791Z,100202.44
2023-02-01T14:08:24.164Z,100203.00
2023-02-01T14:10:53.741Z,100197.75
2023-02-01T14:13:25.756Z,100182.31
2023-02-01T14:16:11.902Z,100200.44
2023-02-01T14:18:52.213Z,100187.56
2023-02-01T14:21:24.250Z,100177.88
2023-02-01T14:23:57.377Z,100178.84
2023-02-01T14:26:27.138Z,100175.63
2023-02-01T14:29:02.577Z,100158.41
2023-02-01T14:31:37.819Z,100159.72
2023-02-01T14:34:07.489Z,100148.16
2023-02-01T14:36:45.680Z,100151.41
2023-02-01T14:39:33.667Z,100148.34
2023-02-01T14:42:04.202Z,100144.78
2023-02-01T14:44:32.898Z,100134.44
2023-02-01T14:47:33.844Z,100138.94
2023-02-01T14:50:28.603Z,100132.97
2023-02-01T14:53:13.506Z,100134.72
2023-02-01T14:55:42.599Z,100133.34
2023-02-01T14:58:17.117Z,100127.06
2023-02-01T15:00:48.820Z,100117.34
2023-02-01T15:03:21.714Z,100117.59
2023-02-01T15:05:53.323Z,100109.91
2023-02-01T15:08:21.593Z,100117.97
2023-02-01T15:10:50.128Z,100113.72
2023-02-01T15:13:23.643Z,100143.13
2023-02-01T15:16:04.439Z,100128.81
2023-02-01T15:18:32.123Z,100138.81
2023-02-01T15:21:09.494Z,100141.31
2023-02-01T15:23:49.555Z,100128.31
2023-02-01T15:26:26.950Z,100132.09
2023-02-01T15:28:55.988Z,100126.81
2023-02-01T15:31:33.856Z,100128.88
2023-02-01T15:34:01.619Z,100121.44
2023-02-01T15:36:29.871Z,100118.06
2023-02-01T15:39:19.333Z,100117.06
2023-02-01T15:41:48.278Z,100110.28
2023-02-01T15:44:19.016Z,100114.13
2023-02-01T15:46:47.422Z,100119.06
2023-02-01T15:49:19.996Z,100121.31
2023-02-01T15:51:48.115Z,100127.59
2023-02-01T15:54:20.482Z,100122.94
2023-02-01T15:56:53.621Z,100123.31
2023-02-01T15:59:22.929Z,100125.06
2023-02-01T16:01:51.872Z,100127.06
2023-02-01T16:04:21.517Z,100133.72
2023-02-01T16:06:50.783Z,100157.75
2023-02-01T16:09:18.767Z,100159.91
2023-02-01T16:11:51.329Z,100183.41
2023-02-01T16:14:18.932Z,100178.75
2023-02-01T16:16:47.936Z,100190.81
2023-02-01T16:19:15.526Z,100201.34
2023-02-01T16:21:43.173Z,100191.28
2023-02-01T16:24:10.850Z,100196.63
2023-02-01T16:26:39.239Z,100201.00
2023-02-01T16:29:07.901Z,100179.41
2023-02-01T16:31:36.395Z,100170.78
2023-02-01T16:34:06.359Z,100174.34
2023-02-01T16:36:34.257Z,100174.78
2023-02-01T16:39:03.766Z,100171.78
2023-02-01T16:41:31.397Z,100185.53
2023-02-01T16:43:58.995Z,100188.78
2023-02-01T16:46:28.019Z,100194.56
2023-02-01T16:48:56.290Z,100184.16
2023-02-01T16:51:25.572Z,100188.66
2023-02-01T16:53:55.015Z,100201.59
2023-02-01T16:56:23.948Z,100218.19
2023-02-01T16:58:51.701Z,100213.06
2023-02-01T17:01:20.324Z,100207.69
2023-02-01T17:03:48.468Z,100218.63
2023-02-01T17:06:17.396Z,100219.38
2023-02-01T17:08:46.831Z,100223.72
2023-02-01T17:11:14.758Z,100226.25
2023-02-01T17:13:43.009Z,100221.91
2023-02-01T17:16:14.871Z,100225.03
2023-02-01T17:18:42.497Z,100223.41
2023-02-01T17:21:10.653Z,100222.97
2023-02-01T17:23:38.500Z,100225.03
2023-02-01T17:26:10.156Z,100217.34
2023-02-01T17:28:37.788Z,100208.97
2023-02-01T17:31:05.704Z,100228.59
2023-02-01T17:33:35.738Z,100214.63
2023-02-01T17:36:04.500Z,100240.56
2023-02-01T17:38:32.084Z,100220.44
2023-02-01T17:40:59.727Z,100231.69
2023-02-01T17:43:28.743Z,100226.91
2023-02-01T17:45:56.850Z,100226.63
2023-02-01T17:48:24.641Z,100238.56
2023-02-01T17:50:58.442Z,100235.22
2023-02-01T17:53:26.181Z,100244.72
2023-02-01T17:55:53.921Z,100239.03
2023-02-01T17:58:22.672Z,100249.53
2023-02-01T18:00:51.776Z,100230.00
2023-02-01T18:03:22.695Z,100256.63
2023-02-01T18:05:51.109Z,100243.69
2023-02-01T18:08:21.563Z,100251.34
2023-02-01T18:10:49.736Z,100266.03
2023-02-01T18:13:17.329Z,100248.63
2023-02-01T18:15:45.003Z,100249.50
2023-02-01T18:18:13.963Z,100255.00
2023-02-01T18:20:43.329Z,100252.16
2023-02-01T18:23:15.531Z,100250.13
2023-02-01T18:25:45.956Z,100254.03
2023-02-01T18:28:13.976Z,100262.03
2023-02-01T18:30:41.645Z,100267.25
2023-02-01T18:33:10.417Z,100254.59
2023-02-01T18:35:39.583Z,100280.16
2023-02-01T18:38:07.258Z,100268.50
2023-02-01T18:40:35.206Z,100264.31
2023-02-01T18:43:02.851Z,100264.94
2023-02-01T18:45:31.512Z,100267.66
2023-02-01T18:47:59.648Z,100270.59
2023-02-01T18:50:28.232Z,100264.25
2023-02-01T18:52:58.122Z,100262.78
2023-02-01T18:55:26.494Z,100255.88
2023-02-01T18:57:54.367Z,100280.41
2023-02-01T19:00:22.772Z,100283.72
2023-02-01T19:02:50.617Z,100295.75
2023-02-01T19:05:18.583Z,100288.59
2023-02-01T19:07:46.508Z,100280.84
2023-02-01T19:10:16.638Z,100298.69
2023-02-01T19:12:44.265Z,100296.97
2023-02-01T19:15:15.605Z,100296.91
2023-02-01T19:17:43.909Z,100290.66
2023-02-01T19:20:12.475Z,100291.28
2023-02-01T19:22:40.413Z,100299.28
2023-02-01T19:25:08.565Z,100292.78
2023-02-01T19:27:37.556Z,100290.66
2023-02-01T19:30:05.695Z,100298.19
2023-02-01T19:32:33.349Z,100303.41
2023-02-01T19:35:01.052Z,100311.69
2023-02-01T19:37:28.670Z,100301.41
2023-02-01T19:39:56.320Z,100301.31
2023-02-01T19:42:23.951Z,100306.56
2023-02-01T19:44:52.970Z,100296.97
2023-02-01T19:47:20.606Z,100302.22
2023-02-01T19:49:48.260Z,100310.91
2023-02-01T19:52:15.911Z,100305.41
2023-02-01T19:54:43.587Z,100302.34
2023-02-01T19:57:11.285Z,100314.09
2023-02-01T19:59:38.984Z,100319.31
2023-02-01T20:02:07.153Z,100302.06
2023-02-01T20:04:34.799Z,100306.91
2023-02-01T20:07:03.421Z,100305.47
2023-02-01T20:09:31.322Z,100310.66
2023-02-01T20:11:58.961Z,100310.50
2023-02-01T20:14:27.127Z,100323.97
2023-02-01T20:16:54.809Z,100307.75
2023-02-01T20:19:23.974Z,100315.34
2023-02-01T20:21:51.612Z,100305.28
2023-02-01T20:24:19.413Z,100311.97
2023-02-01T20:26:49.074Z,100318.63
2023-02-01T20:29:17.410Z,100311.09
2023-02-01T20:31:45.775Z,100320.06
2023-02-01T20:34:14.112Z,100309.97
2023-02-01T20:36:43.193Z,100324.03
2023-02-01T20:39:10.865Z,100322.41
2023-02-01T20:41:38.640Z,100323.13
2023-02-01T20:44:06.446Z,100329.72
2023-02-01T20:46:34.105Z,100321.91
2023-02-01T20:49:01.818Z,100344.41
2023-02-01T20:51:29.515Z,100337.53
2023-02-01T20:53:58.502Z,100347.50
2023-02-01T20:56:26.088Z,100314.94
2023-02-01T20:58:53.912Z,100323.38
2023-02-01T21:01:21.534Z,100332.41
2023-02-01T21:03:49.189Z,100318.03
2023-02-01T21:06:16.917Z,100307.50
2023-02-01T21:08:44.552Z,100322.06
2023-02-01T21:11:14.002Z,100351.88
2023-02-01T21:13:43.944Z,100324.94
2023-02-01T21:16:12.236Z,100318.59
2023-02-01T21:18:40.010Z,100331.25
2023-02-01T21:21:07.929Z,100327.22
2023-02-01T21:23:44.583Z,100321.28
2023-02-01T21:26:13.960Z,100336.22
2023-02-01T21:28:41.608Z,100323.63
2023-02-01T21:31:09.333Z,100332.69
2023-02-01T21:33:39.207Z,100323.19
2023-02-01T21:36:07.143Z,100346.06
2023-02-01T21:38:34.904Z,100341.63
2023-02-01T21:41:20.036Z,100338.94
2023-02-01T21:43:49.024Z,100342.38
2023-02-01T21:46:18.047Z,100328.69
2023-02-01T21:49:05.383Z,100339.69
2023-02-01T21:51:35.033Z,100352.13
2023-02-01T21:54:02.848Z,100343.03
2023-02-01T21:56:30.456Z,100344.28
2023-02-01T21:58:59.494Z,100336.03
2023-02-01T22:01:27.237Z,100340.66
2023-02-01T22:03:55.093Z,100346.81
2023-02-01T22:06:23.498Z,100331.19
2023-02-01T22:08:51.140Z,100330.84
2023-02-01T22:11:18.848Z,100338.13
2023-02-01T22:13:46.576Z,100333.34
2023-02-01T22:16:18.033Z,100338.97
2023-02-01T22:18:45.801Z,100350.41
2023-02-01T22:21:13.473Z,100343.41
2023-02-01T22:23:41.201Z,100341.78
2023-02-01T22:26:09.296Z,100343.41
2023-02-01T22:28:37.058Z,100353.78
2023-02-01T22:31:05.447Z,100361.06
2023-02-01T22:33:34.613Z,100344.72
2023-02-01T22:36:02.270Z,100357.16
2023-02-01T22:38:31.227Z,100331.06
2023-02-01T22:40:59.172Z,100343.88
2023-02-01T22:43:26.814Z,100343.72
2023-02-01T22:45:54.597Z,100345.75
2023-02-01T22:48:22.241Z,100344.25
2023-02-01T22:50:51.207Z,100322.25
2023-02-01T22:53:19.823Z,100336.72
2023-02-01T22:55:47.456Z,100327.66
2023-02-01T22:58:15.008Z,100330.59
2023-02-01T23:00:42.634Z,100336.63
2023-02-01T23:03:10.334Z,100335.78
2023-02-01T23:05:37.938Z,100328.84
2023-02-01T23:08:06.927Z,100317.41
2023-02-01T23:10:34.599Z,100329.78
2023-02-01T23:13:02.363Z,100332.06
2023-02-01T23:15:30.032Z,100352.84
2023-02-01T23:17:57.854Z,100304.59
2023-02-01T23:20:25.498Z,100302.13
2023-02-01T23:22:53.128Z,100302.00
2023-02-01T23:25:25.262Z,100308.38
2023-02-01T23:27:53.128Z,100295.75
2023-02-01T23:30:20.919Z,100291.94
2023-02-01T23:32:48.488Z,100288.75
2023-02-01T23:35:16.182Z,100291.81
2023-02-01T23:37:43.835Z,100273.91
2023-02-01T23:40:12.229Z,100278.69
2023-02-01T23:42:41.250Z,100284.50
2023-02-01T23:45:09.243Z,100256.75
2023-02-01T23:47:36.859Z,100274.97
2023-02-01T23:50:04.482Z,100266.56
2023-02-01T23:52:32.124Z,100267.19
2023-02-01T23:54:59.732Z,100269.59
2023-02-01T23:57:27.316Z,100260.56
2023-02-01T23:59:56.300Z,100259.38
